Terminal Aerodrome Forecast
Issued by NWS

Home | Current Version | Previous Version | Text Only | Print | Product List | Glossary On
Versions: 1 2 3 4 5 6 7 8 9 10 11 12 13
396
FTUS46 KMTR 040541
TAFOAK
TAF
KOAK 040541Z 0406/0512 28008KT P6SM SCT012 BKN150
     FM040900 29005KT P6SM BKN011 BKN100
     FM041100 28004KT P6SM OVC010
     FM041700 26008KT P6SM VCSH SCT011 BKN080
     FM042100 28009KT P6SM VCSH FEW012 BKN100
     FM050300 28009KT P6SM BKN012=

USA.gov is the U.S. government's official web portal to all federal, state and local government web resources and services.